Strona główna
METAR-TAF:

METAR-TAF

Lotnisko :

Port lotniczy Antananarywa

Antananarywa, Madagaskar

Szerokość geograficzna: 18-48S, Długość geograficzna: 047-29E, wysokość: 1279 m

Aktualna obserwacja pogody

Raport powstał 23 minut temu, godzina 00:30 UTC
Wiatr 2 kt od północny wschód
Temperatura 12°C
Wilgotność 94%
Ciśnienie 1024 hPa
Widzialność 10 km lub więcej
Brak chmur poniżej 1500 m i brak chmur cumulonimbus

METAR: FMMI 260030Z 05002KT CAVOK 12/11 Q1024 NOSIG

czas: 03:53 (00:53 UTC)

Prognoza

Raport powstał 1 godzina i 53 minut temu, godzina 23:00 UTC
Prognoza ważna od 26 godzina 00 UTC do 27 godzina 06 UTC
Wiatr 7 kt od wschodnio-południowy wschód
Widzialność 10 km lub więcej
Mało chmury na wysokości 2000 ft
Prawdopodobieństwo 30%
od 26 godzina 02 UTC do 26 godzina 05 UTC
Widzialność: 2000 m
zamglenie
Prawdopodobieństwo 30%
od 27 godzina 02 UTC do 27 godzina 05 UTC
Widzialność: 0800 m
Przerywane chmury na wysokości 400 ft
mgła

TAF: FMMI 252300Z 2600/2706 11007KT 9999 FEW020 PROB30 2602/2605 2000 BR PROB30 2702/2705 0800 FG BKN004

Obserwacja i prognoza pogody dla ponad 4000 lotnisk (raport METAR i TAF).

Dostępne stacje oznaczono żółtymi i czerwonymi punktami na mapie.

Najedź kursorem aby zobaczyć nazwę stacji.

Kliknij aby zobaczyć obserwacje i prognozy pogody.

Aby zmienić mapę: kliknij na zielony przycisk z czarnym krzyżykiem, aby powiększyć; na zielony przycisk z myślnikiem, aby pomniejszyć; na zielone strzałki, aby przejść do map sąsiednich.


METAR-TAF: